createdAt,value
2019-05-03T00:01:42.221Z,13.27
2019-05-03T00:04:17.051Z,12.43
2019-05-03T00:06:54.669Z,13.70
2019-05-03T00:09:23.097Z,13.13
2019-05-03T00:11:54.219Z,13.00
2019-05-03T00:14:25.698Z,13.43
2019-05-03T00:17:02.836Z,12.57
2019-05-03T00:19:34.222Z,14.20
2019-05-03T00:22:05.641Z,14.07
2019-05-03T00:24:34.075Z,13.70
2019-05-03T00:27:02.494Z,20.00
2019-05-03T00:29:32.548Z,12.87
2019-05-03T00:32:02.789Z,15.30
2019-05-03T00:34:52.453Z,17.93
2019-05-03T00:37:22.941Z,14.80
2019-05-03T00:39:53.009Z,13.90
2019-05-03T00:42:24.439Z,14.50
2019-05-03T00:44:58.838Z,12.80
2019-05-03T00:47:28.893Z,12.33
2019-05-03T00:50:02.938Z,16.17
2019-05-03T00:52:31.836Z,15.83
2019-05-03T00:55:15.716Z,13.57
2019-05-03T00:57:37.606Z,15.00
2019-05-03T01:00:12.397Z,14.40
2019-05-03T01:02:43.992Z,14.63
2019-05-03T01:05:12.554Z,13.97
2019-05-03T01:07:43.564Z,14.50
2019-05-03T01:10:15.370Z,14.33
2019-05-03T01:12:46.827Z,16.07
2019-05-03T01:15:27.097Z,15.00
2019-05-03T01:18:01.671Z,16.27
2019-05-03T01:20:31.939Z,16.70
2019-05-03T01:23:03.159Z,15.80
2019-05-03T01:25:37.097Z,17.87
2019-05-03T01:28:09.658Z,15.53
2019-05-03T01:30:44.296Z,16.57
2019-05-03T01:33:14.365Z,16.60
2019-05-03T01:35:49.454Z,17.27
2019-05-03T01:38:26.395Z,14.20
2019-05-03T01:40:56.470Z,15.90
2019-05-03T01:43:32.486Z,15.27
2019-05-03T01:46:07.996Z,14.47
2019-05-03T01:48:44.060Z,15.77
2019-05-03T01:51:23.506Z,18.13
2019-05-03T01:53:52.387Z,15.43
2019-05-03T01:56:25.401Z,15.37
2019-05-03T01:58:57.038Z,14.60
2019-05-03T02:01:52.461Z,13.70
2019-05-03T02:04:41.754Z,16.57
2019-05-03T02:07:11.917Z,16.80
2019-05-03T02:09:42.876Z,15.43
2019-05-03T02:12:15.585Z,15.60
2019-05-03T02:14:46.795Z,16.60
2019-05-03T02:17:18.177Z,16.40
2019-05-03T02:19:48.738Z,17.30
2019-05-03T02:22:16.753Z,19.33
2019-05-03T02:24:48.042Z,17.83
2019-05-03T02:27:16.471Z,18.23
2019-05-03T02:29:46.541Z,16.80
2019-05-03T02:32:23.836Z,16.13
2019-05-03T02:34:58.159Z,15.77
2019-05-03T02:37:33.019Z,17.97
2019-05-03T02:40:12.842Z,16.27
2019-05-03T02:42:42.111Z,18.70
2019-05-03T02:45:21.845Z,18.50
2019-05-03T02:48:00.894Z,18.00
2019-05-03T02:50:32.233Z,17.53
2019-05-03T02:53:05.617Z,17.37
2019-05-03T02:55:35.930Z,17.67
2019-05-03T02:58:06.803Z,19.20
2019-05-03T03:01:06.484Z,16.30
2019-05-03T03:03:56.359Z,15.37
2019-05-03T03:06:26.754Z,19.07
2019-05-03T03:08:58.237Z,18.43
2019-05-03T03:11:29.736Z,19.00
2019-05-03T03:14:05.758Z,19.50
2019-05-03T03:16:39.107Z,19.73
2019-05-03T03:19:07.540Z,20.90
2019-05-03T03:21:40.809Z,23.20
2019-05-03T03:24:12.319Z,26.17
2019-05-03T03:26:47.025Z,23.83
2019-05-03T03:29:18.474Z,27.00
2019-05-03T03:32:08.444Z,26.70
2019-05-03T03:34:55.367Z,26.10
2019-05-03T03:37:26.645Z,24.97
2019-05-03T03:40:06.040Z,26.70
2019-05-03T03:42:36.023Z,31.40
2019-05-03T03:45:07.862Z,24.80
2019-05-03T03:47:38.323Z,26.93
2019-05-03T03:50:07.682Z,28.07
2019-05-03T03:52:37.918Z,27.40
2019-05-03T03:55:10.199Z,28.03
2019-05-03T03:57:39.089Z,29.10
2019-05-03T04:00:16.299Z,31.60
2019-05-03T04:02:45.873Z,32.23
2019-05-03T04:05:20.071Z,34.20
2019-05-03T04:07:51.247Z,32.67
2019-05-03T04:10:19.653Z,33.63
2019-05-03T04:12:50.460Z,32.17
2019-05-03T04:15:32.355Z,35.10
2019-05-03T04:18:19.528Z,33.10
2019-05-03T04:20:45.863Z,35.57
2019-05-03T04:23:16.797Z,32.47
2019-05-03T04:25:51.659Z,32.03
2019-05-03T04:28:25.383Z,31.90
2019-05-03T04:30:55.221Z,34.80
2019-05-03T04:33:26.911Z,30.73
2019-05-03T04:36:00.362Z,32.57
2019-05-03T04:38:35.415Z,31.43
2019-05-03T04:41:15.666Z,51.23
2019-05-03T04:43:46.335Z,32.97
2019-05-03T04:46:19.302Z,31.67
2019-05-03T04:48:47.727Z,29.07
2019-05-03T04:51:16.759Z,29.33
2019-05-03T04:53:46.982Z,29.17
2019-05-03T04:56:26.016Z,30.10
2019-05-03T04:59:17.616Z,27.07
2019-05-03T05:01:58.090Z,28.33
2019-05-03T05:04:26.535Z,30.53
2019-05-03T05:06:56.588Z,32.17
2019-05-03T05:09:38.784Z,28.60
2019-05-03T05:12:07.569Z,30.90
2019-05-03T05:14:35.993Z,28.27
2019-05-03T05:17:06.421Z,28.83
2019-05-03T05:19:39.506Z,29.67
2019-05-03T05:22:15.500Z,27.30
2019-05-03T05:24:45.812Z,27.10
2019-05-03T05:27:27.877Z,26.47
2019-05-03T05:30:00.451Z,26.80
2019-05-03T05:32:35.085Z,26.20
2019-05-03T05:35:09.720Z,24.67
2019-05-03T05:37:40.832Z,25.23
2019-05-03T05:40:10.879Z,22.83
2019-05-03T05:42:42.501Z,22.53
2019-05-03T05:45:15.118Z,24.13
2019-05-03T05:47:45.191Z,22.70
2019-05-03T05:50:29.661Z,21.27
2019-05-03T05:53:01.029Z,24.47
2019-05-03T05:55:39.838Z,20.57
2019-05-03T05:58:12.852Z,17.50
2019-05-03T06:00:59.182Z,18.53
2019-05-03T06:03:27.606Z,18.03
2019-05-03T06:06:03.106Z,20.13
2019-05-03T06:08:35.405Z,15.30
2019-05-03T06:11:23.200Z,16.53
2019-05-03T06:14:07.993Z,16.43
2019-05-03T06:16:52.754Z,15.73
2019-05-03T06:19:25.406Z,16.37
2019-05-03T06:22:05.078Z,15.93
2019-05-03T06:24:48.504Z,17.07
2019-05-03T06:27:26.961Z,15.33
2019-05-03T06:29:57.019Z,14.43
2019-05-03T06:32:35.853Z,12.63
2019-05-03T06:35:06.004Z,12.93
2019-05-03T06:37:38.758Z,15.07
2019-05-03T06:40:07.928Z,15.03
2019-05-03T06:42:36.349Z,15.43
2019-05-03T06:45:11.526Z,16.57
2019-05-03T06:47:40.269Z,16.17
2019-05-03T06:50:14.513Z,14.60
2019-05-03T06:52:47.329Z,16.27
2019-05-03T06:55:16.565Z,13.50
2019-05-03T06:57:54.617Z,15.03
2019-05-03T07:00:41.182Z,13.07
2019-05-03T07:03:22.709Z,14.70
2019-05-03T07:06:12.297Z,11.63
2019-05-03T07:08:57.882Z,11.80
2019-05-03T07:11:26.297Z,12.27
2019-05-03T07:13:55.061Z,12.27
2019-05-03T07:16:25.307Z,10.77
2019-05-03T07:18:58.377Z,11.27
2019-05-03T07:21:28.489Z,12.40
2019-05-03T07:23:58.180Z,9.77
2019-05-03T07:26:26.603Z,9.67
2019-05-03T07:28:55.353Z,10.13
2019-05-03T07:31:25.560Z,9.80
2019-05-03T07:34:07.042Z,12.27
2019-05-03T07:36:37.108Z,12.63
2019-05-03T07:39:15.740Z,11.80
2019-05-03T07:41:44.656Z,11.00
2019-05-03T07:44:15.064Z,12.53
2019-05-03T07:46:45.177Z,13.93
2019-05-03T07:49:15.338Z,13.47
2019-05-03T07:51:44.882Z,12.83
2019-05-03T07:54:28.270Z,10.70
2019-05-03T07:56:58.388Z,11.30
2019-05-03T07:59:26.822Z,9.13
2019-05-03T08:01:56.878Z,8.97
2019-05-03T08:04:35.891Z,10.97
2019-05-03T08:07:05.121Z,9.53
2019-05-03T08:09:37.346Z,7.77
2019-05-03T08:12:06.762Z,8.17
2019-05-03T08:14:35.740Z,7.80
2019-05-03T08:17:11.938Z,7.53
2019-05-03T08:19:50.633Z,6.97
2019-05-03T08:22:19.274Z,6.00
2019-05-03T08:24:56.722Z,5.80
2019-05-03T08:27:26.030Z,6.50
2019-05-03T08:29:57.211Z,6.67
2019-05-03T08:32:27.266Z,8.13
2019-05-03T08:35:12.238Z,8.63
2019-05-03T08:37:48.343Z,6.87
2019-05-03T08:40:21.108Z,9.10
2019-05-03T08:42:50.865Z,6.17
2019-05-03T08:45:26.950Z,6.90
2019-05-03T08:47:58.069Z,6.50
2019-05-03T08:50:30.758Z,6.03
2019-05-03T08:52:59.183Z,6.57
2019-05-03T08:55:35.036Z,6.60
2019-05-03T08:58:06.101Z,5.80
2019-05-03T09:00:37.746Z,5.30
2019-05-03T09:03:06.177Z,5.90
2019-05-03T09:05:35.979Z,5.57
2019-05-03T09:08:15.542Z,5.00
2019-05-03T09:10:47.838Z,7.07
2019-05-03T09:13:17.531Z,5.00
2019-05-03T09:15:50.632Z,5.93
2019-05-03T09:18:19.060Z,5.83
2019-05-03T09:20:47.477Z,4.87
2019-05-03T09:23:18.917Z,4.27
2019-05-03T09:25:48.977Z,4.53
2019-05-03T09:28:20.733Z,4.23
2019-05-03T09:30:49.171Z,4.67
2019-05-03T09:33:24.802Z,5.00
2019-05-03T09:36:01.438Z,5.10
2019-05-03T09:38:34.991Z,4.20
2019-05-03T09:41:05.349Z,4.00
2019-05-03T09:43:35.775Z,4.07
2019-05-03T09:46:14.587Z,3.83
2019-05-03T09:48:45.650Z,3.90
2019-05-03T09:51:14.804Z,3.93
2019-05-03T09:54:00.270Z,4.57
2019-05-03T09:56:55.292Z,3.73
2019-05-03T09:59:28.446Z,3.60
2019-05-03T10:02:00.189Z,5.20
2019-05-03T10:04:30.274Z,4.10
2019-05-03T10:06:58.707Z,4.37
2019-05-03T10:09:27.334Z,5.67
2019-05-03T10:11:55.759Z,5.10
2019-05-03T10:14:29.800Z,4.53
2019-05-03T10:17:05.850Z,4.77
2019-05-03T10:19:40.263Z,3.60
2019-05-03T10:22:13.136Z,3.33
2019-05-03T10:24:41.555Z,2.97
2019-05-03T10:27:11.622Z,3.20
2019-05-03T10:29:40.354Z,3.13
2019-05-03T10:32:19.348Z,3.10
2019-05-03T10:34:54.990Z,3.80
2019-05-03T10:37:31.618Z,4.13
2019-05-03T10:40:07.734Z,3.03
2019-05-03T10:42:44.439Z,3.47
2019-05-03T10:45:15.619Z,2.60
2019-05-03T10:47:45.645Z,3.50
2019-05-03T10:50:15.630Z,3.27
2019-05-03T10:52:48.798Z,3.20
2019-05-03T10:55:25.869Z,3.97
2019-05-03T10:58:16.132Z,3.00
2019-05-03T11:00:52.903Z,2.33
2019-05-03T11:03:17.419Z,2.87
2019-05-03T11:05:50.134Z,2.10
2019-05-03T11:08:18.553Z,2.50
2019-05-03T11:10:50.060Z,2.67
2019-05-03T11:13:19.410Z,1.80
2019-05-03T11:15:49.513Z,2.10
2019-05-03T11:18:17.938Z,2.03
2019-05-03T11:20:49.269Z,2.13
2019-05-03T11:23:25.174Z,2.27
2019-05-03T11:25:59.902Z,2.87
2019-05-03T11:28:31.497Z,3.33
2019-05-03T11:31:27.090Z,2.30
2019-05-03T11:34:01.334Z,2.20
2019-05-03T11:36:37.674Z,2.00
2019-05-03T11:39:10.221Z,1.83
2019-05-03T11:41:48.426Z,1.90
2019-05-03T11:44:36.332Z,2.23
2019-05-03T11:47:10.621Z,2.20
2019-05-03T11:49:42.279Z,2.87
2019-05-03T11:52:20.009Z,1.90
2019-05-03T11:54:48.434Z,2.97
2019-05-03T11:57:26.101Z,3.00
2019-05-03T11:59:55.879Z,2.70
2019-05-03T12:02:28.924Z,2.33
2019-05-03T12:05:15.110Z,2.53
2019-05-03T12:07:46.377Z,3.47
2019-05-03T12:10:36.647Z,4.67
2019-05-03T12:12:55.314Z,2.50
2019-05-03T12:15:23.908Z,2.50
2019-05-03T12:17:59.279Z,2.50
2019-05-03T12:20:30.314Z,3.40
2019-05-03T12:23:01.191Z,2.57
2019-05-03T12:25:35.787Z,3.60
2019-05-03T12:28:07.927Z,2.30
2019-05-03T12:30:38.328Z,2.73
2019-05-03T12:33:09.718Z,2.57
2019-05-03T12:35:38.139Z,3.27
2019-05-03T12:38:09.477Z,5.00
2019-05-03T12:40:45.562Z,2.50
2019-05-03T12:43:15.165Z,2.70
2019-05-03T12:45:45.231Z,2.50
2019-05-03T12:48:16.190Z,3.10
2019-05-03T12:50:53.526Z,5.67
2019-05-03T12:53:24.611Z,2.50
2019-05-03T12:55:58.885Z,4.37
2019-05-03T12:58:29.278Z,4.37
2019-05-03T13:00:59.337Z,2.87
2019-05-03T13:03:35.235Z,3.07
2019-05-03T13:06:07.443Z,2.87
2019-05-03T13:08:45.556Z,4.10
2019-05-03T13:11:19.855Z,9.77
2019-05-03T13:13:55.662Z,4.93
2019-05-03T13:16:24.680Z,4.60
2019-05-03T13:18:56.085Z,4.93
2019-05-03T13:21:30.323Z,5.53
2019-05-03T13:23:58.754Z,7.23
2019-05-03T13:26:30.373Z,8.97
2019-05-03T13:29:00.447Z,13.70
2019-05-03T13:31:36.226Z,13.67
2019-05-03T13:34:13.185Z,4.27
2019-05-03T13:36:41.615Z,5.67
2019-05-03T13:39:16.757Z,4.10
2019-05-03T13:41:47.890Z,2.90
2019-05-03T13:44:18.463Z,3.20
2019-05-03T13:46:48.537Z,4.00
2019-05-03T13:49:18.588Z,4.77
2019-05-03T13:51:49.732Z,5.97
2019-05-03T13:54:20.885Z,3.20
2019-05-03T13:56:55.305Z,3.17
2019-05-03T13:59:33.038Z,2.80
2019-05-03T14:02:15.024Z,3.40
2019-05-03T14:04:53.054Z,3.57
2019-05-03T14:07:21.670Z,3.13
2019-05-03T14:09:50.094Z,3.63
2019-05-03T14:12:21.646Z,3.20
2019-05-03T14:14:56.738Z,3.00
2019-05-03T14:17:29.505Z,3.50
2019-05-03T14:20:11.538Z,3.17
2019-05-03T14:22:44.398Z,3.27
2019-05-03T14:25:15.169Z,3.17
2019-05-03T14:27:46.405Z,2.97
2019-05-03T14:30:28.798Z,3.20
2019-05-03T14:32:58.871Z,3.10
2019-05-03T14:35:27.367Z,6.30
2019-05-03T14:37:55.770Z,3.20
2019-05-03T14:40:31.489Z,3.47
2019-05-03T14:43:04.820Z,5.70
2019-05-03T14:45:37.909Z,4.00
2019-05-03T14:48:08.212Z,5.27
2019-05-03T14:50:45.601Z,4.13
2019-05-03T14:53:14.902Z,2.90
2019-05-03T14:55:45.313Z,3.27
2019-05-03T14:58:41.058Z,3.47
2019-05-03T15:01:15.517Z,3.70
2019-05-03T15:03:47.137Z,5.50
2019-05-03T15:06:19.058Z,6.37
2019-05-03T15:08:47.469Z,4.40
2019-05-03T15:11:17.542Z,3.60
2019-05-03T15:13:46.535Z,3.47
2019-05-03T15:16:15.290Z,4.47
2019-05-03T15:18:49.492Z,4.43
2019-05-03T15:21:17.926Z,5.10
2019-05-03T15:24:05.394Z,3.20
2019-05-03T15:26:39.959Z,3.70
2019-05-03T15:29:10.339Z,5.67
2019-05-03T15:31:42.044Z,4.53
2019-05-03T15:34:15.098Z,4.83
2019-05-03T15:36:48.768Z,4.60
2019-05-03T15:39:23.233Z,3.50
2019-05-03T15:42:02.356Z,4.20
2019-05-03T15:44:45.037Z,4.83
2019-05-03T15:47:38.047Z,4.43
2019-05-03T15:50:09.233Z,6.20
2019-05-03T15:52:39.311Z,3.40
2019-05-03T15:55:12.071Z,3.60
2019-05-03T15:57:41.398Z,4.80
2019-05-03T16:00:11.672Z,2.70
2019-05-03T16:02:42.866Z,3.47
2019-05-03T16:05:15.919Z,3.20
2019-05-03T16:07:49.709Z,3.17
2019-05-03T16:10:21.226Z,12.93
2019-05-03T16:12:57.026Z,4.03
2019-05-03T16:15:27.090Z,3.03
2019-05-03T16:17:55.520Z,3.57
2019-05-03T16:20:25.655Z,3.27
2019-05-03T16:22:55.727Z,2.77
2019-05-03T16:25:28.486Z,5.30
2019-05-03T16:28:01.118Z,4.53
2019-05-03T16:30:45.288Z,3.57
2019-05-03T16:33:27.147Z,3.77
2019-05-03T16:35:49.997Z,3.20
2019-05-03T16:38:24.884Z,3.33
2019-05-03T16:40:57.857Z,3.50
2019-05-03T16:43:26.290Z,4.27
2019-05-03T16:45:57.831Z,4.73
2019-05-03T16:48:31.829Z,4.63
2019-05-03T16:51:01.893Z,3.37
2019-05-03T16:53:30.406Z,15.10
2019-05-03T16:56:03.417Z,10.43
2019-05-03T16:58:38.552Z,6.17
2019-05-03T17:01:07.002Z,4.40
2019-05-03T17:03:41.493Z,4.83
2019-05-03T17:06:14.821Z,4.27
2019-05-03T17:08:58.615Z,3.53
2019-05-03T17:11:27.961Z,4.70
2019-05-03T17:13:58.025Z,3.80
2019-05-03T17:16:34.586Z,4.03
2019-05-03T17:19:05.904Z,4.40
2019-05-03T17:21:42.300Z,4.37
2019-05-03T17:24:12.370Z,9.67
2019-05-03T17:26:49.669Z,5.37
2019-05-03T17:29:21.050Z,5.17
2019-05-03T17:31:49.465Z,4.80
2019-05-03T17:34:20.337Z,3.50
2019-05-03T17:36:51.560Z,4.57
2019-05-03T17:39:21.621Z,3.83
2019-05-03T17:41:54.751Z,5.40
2019-05-03T17:44:27.544Z,3.47
2019-05-03T17:47:01.394Z,3.77
2019-05-03T17:49:29.823Z,4.33
2019-05-03T17:52:04.747Z,3.80
2019-05-03T17:54:35.731Z,6.10
2019-05-03T17:57:08.922Z,3.73
2019-05-03T17:59:44.874Z,3.47
2019-05-03T18:02:27.265Z,6.43
2019-05-03T18:05:24.999Z,3.80
2019-05-03T18:08:03.417Z,3.70
2019-05-03T18:10:33.486Z,4.77
2019-05-03T18:13:11.126Z,4.17
2019-05-03T18:15:44.954Z,6.60
2019-05-03T18:18:19.054Z,6.27
2019-05-03T18:20:55.493Z,4.93
2019-05-03T18:23:26.647Z,6.00
2019-05-03T18:25:56.752Z,5.03
2019-05-03T18:28:31.230Z,6.47
2019-05-03T18:31:01.281Z,4.80
2019-05-03T18:33:31.389Z,5.17
2019-05-03T18:36:05.694Z,7.10
2019-05-03T18:38:38.187Z,6.37
2019-05-03T18:41:15.465Z,7.07
2019-05-03T18:43:45.914Z,8.30
2019-05-03T18:46:25.267Z,9.60
2019-05-03T18:48:55.175Z,10.57
2019-05-03T18:51:25.222Z,12.73
2019-05-03T18:53:59.475Z,12.13
2019-05-03T18:56:29.545Z,11.67
2019-05-03T18:59:09.034Z,9.20
2019-05-03T19:01:40.578Z,6.37
2019-05-03T19:04:10.693Z,7.63
2019-05-03T19:06:41.830Z,8.10
2019-05-03T19:09:28.249Z,8.57
2019-05-03T19:12:07.775Z,10.47
2019-05-03T19:14:36.197Z,14.97
2019-05-03T19:17:12.017Z,11.07
2019-05-03T19:19:44.786Z,11.87
2019-05-03T19:22:15.289Z,13.90
2019-05-03T19:24:44.463Z,11.43
2019-05-03T19:27:19.963Z,10.03
2019-05-03T19:29:55.239Z,4.07
2019-05-03T19:32:25.560Z,5.40
2019-05-03T19:34:55.245Z,5.97
2019-05-03T19:37:33.091Z,5.10
2019-05-03T19:40:01.506Z,5.50
2019-05-03T19:42:29.934Z,8.07
2019-05-03T19:44:58.350Z,4.07
2019-05-03T19:47:35.319Z,4.90
2019-05-03T19:50:00.125Z,5.50
2019-05-03T19:52:39.484Z,5.50
2019-05-03T19:55:10.860Z,4.90
2019-05-03T19:57:44.992Z,4.77
2019-05-03T20:00:15.952Z,4.70
2019-05-03T20:03:01.038Z,5.20
2019-05-03T20:05:35.548Z,5.07
2019-05-03T20:08:16.019Z,4.83
2019-05-03T20:10:48.354Z,5.37
2019-05-03T20:13:32.069Z,5.10
2019-05-03T20:15:55.564Z,6.30
2019-05-03T20:18:27.012Z,6.20
2019-05-03T20:20:57.108Z,5.03
2019-05-03T20:23:31.201Z,7.13
2019-05-03T20:26:02.456Z,5.43
2019-05-03T20:28:36.733Z,5.13
2019-05-03T20:31:05.143Z,4.73
2019-05-03T20:33:36.389Z,7.80
2019-05-03T20:36:12.978Z,6.37
2019-05-03T20:38:55.641Z,7.50
2019-05-03T20:41:27.546Z,9.07
2019-05-03T20:43:57.493Z,6.97
2019-05-03T20:46:42.220Z,5.10
2019-05-03T20:49:19.257Z,5.80
2019-05-03T20:51:51.045Z,6.00
2019-05-03T20:54:22.534Z,8.43
2019-05-03T20:56:54.567Z,11.67
2019-05-03T20:59:22.748Z,9.97
2019-05-03T21:02:06.024Z,10.73
2019-05-03T21:04:39.189Z,11.80
2019-05-03T21:07:16.051Z,10.50
2019-05-03T21:09:47.904Z,8.20
2019-05-03T21:12:22.509Z,8.13
2019-05-03T21:14:50.943Z,9.23
2019-05-03T21:17:39.153Z,10.30
2019-05-03T21:20:28.337Z,10.80
2019-05-03T21:22:59.561Z,8.87
2019-05-03T21:25:32.227Z,9.17
2019-05-03T21:28:04.619Z,9.70
2019-05-03T21:30:33.068Z,10.23
2019-05-03T21:33:12.067Z,9.67
2019-05-03T21:35:46.485Z,8.80
2019-05-03T21:38:17.822Z,6.07
2019-05-03T21:40:46.318Z,6.03
2019-05-03T21:43:17.799Z,5.83
2019-05-03T21:45:54.392Z,4.73
2019-05-03T21:48:31.843Z,5.50
2019-05-03T21:51:01.223Z,5.87
2019-05-03T21:53:34.502Z,6.47
2019-05-03T21:56:08.223Z,5.27
2019-05-03T21:58:39.436Z,5.30
2019-05-03T22:01:15.549Z,7.63
2019-05-03T22:03:48.774Z,6.60
2019-05-03T22:06:25.978Z,8.07
2019-05-03T22:08:58.332Z,5.70
2019-05-03T22:11:30.010Z,6.07
2019-05-03T22:14:01.693Z,5.83
2019-05-03T22:16:40.897Z,5.73
2019-05-03T22:19:19.069Z,4.87
2019-05-03T22:22:09.527Z,4.70
2019-05-03T22:24:49.555Z,6.87
2019-05-03T22:27:19.581Z,5.43
2019-05-03T22:29:54.618Z,6.07
2019-05-03T22:32:29.016Z,6.87
2019-05-03T22:34:57.438Z,6.40
2019-05-03T22:37:28.595Z,7.80
2019-05-03T22:40:05.217Z,6.10
2019-05-03T22:42:37.758Z,5.33
2019-05-03T22:45:06.845Z,6.20
2019-05-03T22:47:44.569Z,5.57
2019-05-03T22:50:17.466Z,6.33
2019-05-03T22:52:45.901Z,5.90
2019-05-03T22:55:15.267Z,5.60
2019-05-03T22:57:43.916Z,6.83
2019-05-03T23:00:20.985Z,5.10
2019-05-03T23:03:08.032Z,8.63
2019-05-03T23:05:40.845Z,5.77
2019-05-03T23:08:16.735Z,4.73
2019-05-03T23:10:47.805Z,6.80
2019-05-03T23:13:29.766Z,5.23
2019-05-03T23:16:05.487Z,4.57
2019-05-03T23:18:34.790Z,4.90
2019-05-03T23:21:06.418Z,4.43
2019-05-03T23:23:51.209Z,4.77
2019-05-03T23:26:28.409Z,5.40
2019-05-03T23:28:56.837Z,4.77
2019-05-03T23:31:26.889Z,5.50
2019-05-03T23:34:02.480Z,5.70
2019-05-03T23:36:36.287Z,6.10
2019-05-03T23:39:05.215Z,4.50
2019-05-03T23:41:35.373Z,4.63
2019-05-03T23:44:04.734Z,6.17
2019-05-03T23:46:34.914Z,4.60
2019-05-03T23:49:03.390Z,4.87
2019-05-03T23:51:45.661Z,4.30
2019-05-03T23:54:16.523Z,4.13
2019-05-03T23:56:54.804Z,4.33
2019-05-03T23:59:31.438Z,5.03
